HRYR/KGL METAR and TAF weather

Enter ICAO airport designator
Station Type Date Time Source
HRYR METAR 2020/03/31 22:00 UTC NOAA

HRYR 312200Z VRB02KT 9999 FEW026 19/17 Q1021 NOSIG


Station Type Date Time Source
HRYR Decoded METAR 2020/03/31 22:00 UTC NOAA

Kigali, Rwanda (HRYR) 01-58S 030-07E 1497M
Mar 31, 2020 - 06:00 PM EDT / 2020.03.31 2200 UTC
Wind: Variable at 2 MPH (2 KT):0
Visibility: greater than 7 mile(s):0
Sky conditions: mostly clear
Temperature: 66 F (19 C)
Dew Point: 62 F (17 C)
Relative Humidity: 88%
Pressure (altimeter): 30.15 in. Hg (1021 hPa)
ob: HRYR 312200Z VRB02KT 9999 FEW026 19/17 Q1021 NOSIG
cycle: 22

Station Type Date Time Source
HRYR TAF 2020/03/31 18:54 UTC NOAA

TAF HRYR 311700Z 3118/0124 17005KT 9999 SCT025 FM 312100 24003KT FEW026
BECMG 0102/0105 00000KT 4000 BR FEW015 SCT024 FM 010900 14006KT 9999 BKN023
BECMG 0112/0115 09010KT -TSRA FEW023CB BKN025 FM 012100 28004KT NSW SCT025 SCT100

Example: see airport list